sensor_id;sensor_type;location;lat;lon;timestamp;pressure;altitude;pressure_sealevel;temperature
30001;BMP280;16845;48.670;9.000;2023-08-01T00:00:47;94636.81;;;16.70
30001;BMP280;16845;48.670;9.000;2023-08-01T00:03:13;94626.59;;;16.71
30001;BMP280;16845;48.670;9.000;2023-08-01T00:05:40;94633.47;;;16.82
30001;BMP280;16845;48.670;9.000;2023-08-01T00:08:08;94623.47;;;16.68
30001;BMP280;16845;48.670;9.000;2023-08-01T00:10:35;94618.78;;;16.74
30001;BMP280;16845;48.670;9.000;2023-08-01T00:13:01;94614.53;;;16.87
30001;BMP280;16845;48.670;9.000;2023-08-01T00:15:28;94613.53;;;16.77
30001;BMP280;16845;48.670;9.000;2023-08-01T00:17:54;94601.28;;;16.71
30001;BMP280;16845;48.670;9.000;2023-08-01T00:20:21;94614.94;;;16.69
30001;BMP280;16845;48.670;9.000;2023-08-01T00:22:47;94616.25;;;16.74
30001;BMP280;16845;48.670;9.000;2023-08-01T00:25:15;94606.13;;;16.74
30001;BMP280;16845;48.670;9.000;2023-08-01T00:27:42;94599.22;;;16.89
30001;BMP280;16845;48.670;9.000;2023-08-01T00:30:09;94593.78;;;16.82
30001;BMP280;16845;48.670;9.000;2023-08-01T00:32:36;94585.47;;;16.68
30001;BMP280;16845;48.670;9.000;2023-08-01T00:35:03;94581.63;;;16.63
30001;BMP280;16845;48.670;9.000;2023-08-01T00:37:29;94583.34;;;16.74
30001;BMP280;16845;48.670;9.000;2023-08-01T00:39:56;94580.50;;;16.79
30001;BMP280;16845;48.670;9.000;2023-08-01T00:42:24;94575.44;;;16.79
30001;BMP280;16845;48.670;9.000;2023-08-01T00:44:50;94575.13;;;16.83
30001;BMP280;16845;48.670;9.000;2023-08-01T00:47:17;94571.38;;;16.89
30001;BMP280;16845;48.670;9.000;2023-08-01T00:49:43;94560.09;;;16.93
30001;BMP280;16845;48.670;9.000;2023-08-01T00:52:09;94556.66;;;16.94
30001;BMP280;16845;48.670;9.000;2023-08-01T00:54:36;94571.97;;;16.80
30001;BMP280;16845;48.670;9.000;2023-08-01T00:57:04;94562.16;;;16.75
30001;BMP280;16845;48.670;9.000;2023-08-01T00:59:32;94561.13;;;16.78
30001;BMP280;16845;48.670;9.000;2023-08-01T01:01:59;94550.88;;;16.92
30001;BMP280;16845;48.670;9.000;2023-08-01T01:04:26;94548.72;;;16.98
30001;BMP280;16845;48.670;9.000;2023-08-01T01:06:57;94560.13;;;16.80
30001;BMP280;16845;48.670;9.000;2023-08-01T01:09:28;94563.75;;;16.76
30001;BMP280;16845;48.670;9.000;2023-08-01T01:11:55;94559.63;;;16.75
30001;BMP280;16845;48.670;9.000;2023-08-01T01:14:21;94550.31;;;16.63
30001;BMP280;16845;48.670;9.000;2023-08-01T01:16:49;94548.59;;;16.52
30001;BMP280;16845;48.670;9.000;2023-08-01T01:19:16;94544.53;;;16.62
30001;BMP280;16845;48.670;9.000;2023-08-01T01:21:44;94550.41;;;16.62
30001;BMP280;16845;48.670;9.000;2023-08-01T01:24:12;94537.56;;;16.53
30001;BMP280;16845;48.670;9.000;2023-08-01T01:26:40;94529.94;;;16.40
30001;BMP280;16845;48.670;9.000;2023-08-01T01:29:08;94520.84;;;16.38
30001;BMP280;16845;48.670;9.000;2023-08-01T01:31:36;94523.06;;;16.30
30001;BMP280;16845;48.670;9.000;2023-08-01T01:34:02;94523.97;;;16.29
30001;BMP280;16845;48.670;9.000;2023-08-01T01:36:29;94512.09;;;16.29
30001;BMP280;16845;48.670;9.000;2023-08-01T01:38:57;94510.88;;;16.35
30001;BMP280;16845;48.670;9.000;2023-08-01T01:41:23;94499.38;;;16.18
30001;BMP280;16845;48.670;9.000;2023-08-01T01:43:50;94491.97;;;16.40
30001;BMP280;16845;48.670;9.000;2023-08-01T01:46:16;94494.59;;;16.26
30001;BMP280;16845;48.670;9.000;2023-08-01T01:48:43;94476.47;;;16.32
30001;BMP280;16845;48.670;9.000;2023-08-01T01:51:09;94474.03;;;16.31
30001;BMP280;16845;48.670;9.000;2023-08-01T01:53:36;94475.97;;;16.15
30001;BMP280;16845;48.670;9.000;2023-08-01T01:56:04;94470.09;;;16.14
30001;BMP280;16845;48.670;9.000;2023-08-01T01:58:30;94465.53;;;16.07
30001;BMP280;16845;48.670;9.000;2023-08-01T02:00:57;94462.91;;;16.21
30001;BMP280;16845;48.670;9.000;2023-08-01T02:03:24;94475.34;;;16.24
30001;BMP280;16845;48.670;9.000;2023-08-01T02:05:50;94466.78;;;16.39
30001;BMP280;16845;48.670;9.000;2023-08-01T02:08:16;94462.09;;;16.20
30001;BMP280;16845;48.670;9.000;2023-08-01T02:10:43;94451.69;;;16.25
30001;BMP280;16845;48.670;9.000;2023-08-01T02:13:11;94440.44;;;16.29
30001;BMP280;16845;48.670;9.000;2023-08-01T02:15:37;94438.00;;;16.27
30001;BMP280;16845;48.670;9.000;2023-08-01T02:18:04;94440.63;;;16.26
30001;BMP280;16845;48.670;9.000;2023-08-01T02:20:30;94439.72;;;16.27
30001;BMP280;16845;48.670;9.000;2023-08-01T02:22:57;94455.44;;;16.44
30001;BMP280;16845;48.670;9.000;2023-08-01T02:25:24;94453.19;;;16.40
30001;BMP280;16845;48.670;9.000;2023-08-01T02:27:50;94443.06;;;16.52
30001;BMP280;16845;48.670;9.000;2023-08-01T02:30:18;94456.03;;;16.48
30001;BMP280;16845;48.670;9.000;2023-08-01T02:32:45;94449.75;;;16.41
30001;BMP280;16845;48.670;9.000;2023-08-01T02:35:11;94449.13;;;16.50
30001;BMP280;16845;48.670;9.000;2023-08-01T02:37:38;94447.84;;;16.44
30001;BMP280;16845;48.670;9.000;2023-08-01T02:40:07;94450.88;;;16.37
30001;BMP280;16845;48.670;9.000;2023-08-01T02:42:34;94452.28;;;16.41
30001;BMP280;16845;48.670;9.000;2023-08-01T02:45:01;94455.13;;;16.49
30001;BMP280;16845;48.670;9.000;2023-08-01T02:47:29;94445.63;;;16.63
30001;BMP280;16845;48.670;9.000;2023-08-01T02:49:55;94435.63;;;16.62
30001;BMP280;16845;48.670;9.000;2023-08-01T02:52:21;94439.41;;;16.56
30001;BMP280;16845;48.670;9.000;2023-08-01T02:54:48;94450.13;;;16.60
30001;BMP280;16845;48.670;9.000;2023-08-01T02:57:15;94458.72;;;16.69
30001;BMP280;16845;48.670;9.000;2023-08-01T02:59:41;94443.00;;;16.64
30001;BMP280;16845;48.670;9.000;2023-08-01T03:02:08;94437.72;;;16.67
30001;BMP280;16845;48.670;9.000;2023-08-01T03:04:36;94438.88;;;16.63
30001;BMP280;16845;48.670;9.000;2023-08-01T03:07:12;94433.50;;;16.68
30001;BMP280;16845;48.670;9.000;2023-08-01T03:09:38;94435.06;;;16.81
30001;BMP280;16845;48.670;9.000;2023-08-01T03:12:05;94433.63;;;16.90
30001;BMP280;16845;48.670;9.000;2023-08-01T03:14:32;94439.84;;;16.97
30001;BMP280;16845;48.670;9.000;2023-08-01T03:16:58;94432.78;;;16.89
30001;BMP280;16845;48.670;9.000;2023-08-01T03:19:25;94423.16;;;16.94
30001;BMP280;16845;48.670;9.000;2023-08-01T03:21:52;94421.97;;;17.11
30001;BMP280;16845;48.670;9.000;2023-08-01T03:24:19;94422.78;;;17.11
30001;BMP280;16845;48.670;9.000;2023-08-01T03:26:46;94424.00;;;17.06
30001;BMP280;16845;48.670;9.000;2023-08-01T03:29:12;94425.88;;;16.91
30001;BMP280;16845;48.670;9.000;2023-08-01T03:31:39;94425.31;;;16.88
30001;BMP280;16845;48.670;9.000;2023-08-01T03:34:05;94432.97;;;16.99
30001;BMP280;16845;48.670;9.000;2023-08-01T03:36:32;94426.53;;;17.06
30001;BMP280;16845;48.670;9.000;2023-08-01T03:38:59;94426.06;;;17.01
30001;BMP280;16845;48.670;9.000;2023-08-01T03:41:26;94438.63;;;17.02
30001;BMP280;16845;48.670;9.000;2023-08-01T03:43:53;94446.13;;;17.04
30001;BMP280;16845;48.670;9.000;2023-08-01T03:46:19;94443.97;;;17.10
30001;BMP280;16845;48.670;9.000;2023-08-01T03:48:46;94438.66;;;17.13
30001;BMP280;16845;48.670;9.000;2023-08-01T03:51:12;94449.31;;;17.18
30001;BMP280;16845;48.670;9.000;2023-08-01T03:53:39;94452.13;;;17.26
30001;BMP280;16845;48.670;9.000;2023-08-01T03:56:07;94439.19;;;17.18
30001;BMP280;16845;48.670;9.000;2023-08-01T03:58:33;94438.84;;;17.23
30001;BMP280;16845;48.670;9.000;2023-08-01T04:00:59;94445.16;;;17.17
30001;BMP280;16845;48.670;9.000;2023-08-01T04:03:26;94452.41;;;17.11
30001;BMP280;16845;48.670;9.000;2023-08-01T04:05:53;94442.25;;;17.11
30001;BMP280;16845;48.670;9.000;2023-08-01T04:08:20;94433.81;;;17.10
30001;BMP280;16845;48.670;9.000;2023-08-01T04:10:46;94426.34;;;17.09
30001;BMP280;16845;48.670;9.000;2023-08-01T04:13:14;94414.47;;;17.09
30001;BMP280;16845;48.670;9.000;2023-08-01T04:15:41;94411.28;;;17.18
30001;BMP280;16845;48.670;9.000;2023-08-01T04:18:07;94399.25;;;17.09
30001;BMP280;16845;48.670;9.000;2023-08-01T04:20:34;94396.69;;;17.22
30001;BMP280;16845;48.670;9.000;2023-08-01T04:23:00;94383.97;;;17.11
30001;BMP280;16845;48.670;9.000;2023-08-01T04:25:27;94365.56;;;16.96
30001;BMP280;16845;48.670;9.000;2023-08-01T04:27:53;94349.72;;;17.05
30001;BMP280;16845;48.670;9.000;2023-08-01T04:30:21;94335.84;;;16.98
30001;BMP280;16845;48.670;9.000;2023-08-01T04:32:48;94328.84;;;17.02
30001;BMP280;16845;48.670;9.000;2023-08-01T04:35:14;94310.53;;;16.98
30001;BMP280;16845;48.670;9.000;2023-08-01T04:37:41;94295.06;;;16.90
30001;BMP280;16845;48.670;9.000;2023-08-01T04:40:08;94223.66;;;16.85
30001;BMP280;16845;48.670;9.000;2023-08-01T04:42:35;94268.09;;;16.89
30001;BMP280;16845;48.670;9.000;2023-08-01T04:45:02;94261.44;;;16.99
30001;BMP280;16845;48.670;9.000;2023-08-01T04:47:29;94254.44;;;17.03
30001;BMP280;16845;48.670;9.000;2023-08-01T04:49:56;94244.56;;;17.11
30001;BMP280;16845;48.670;9.000;2023-08-01T04:52:23;94243.50;;;17.13
30001;BMP280;16845;48.670;9.000;2023-08-01T04:54:49;94238.56;;;17.23
30001;BMP280;16845;48.670;9.000;2023-08-01T04:57:16;94249.06;;;17.18
30001;BMP280;16845;48.670;9.000;2023-08-01T04:59:42;94238.69;;;17.32
30001;BMP280;16845;48.670;9.000;2023-08-01T05:02:09;94250.44;;;17.33
30001;BMP280;16845;48.670;9.000;2023-08-01T05:04:37;94262.44;;;17.31
30001;BMP280;16845;48.670;9.000;2023-08-01T05:07:04;94272.16;;;17.37
30001;BMP280;16845;48.670;9.000;2023-08-01T05:09:31;94283.59;;;17.43
30001;BMP280;16845;48.670;9.000;2023-08-01T05:11:58;94261.25;;;17.24
30001;BMP280;16845;48.670;9.000;2023-08-01T05:14:25;94270.47;;;17.25
30001;BMP280;16845;48.670;9.000;2023-08-01T05:16:51;94278.09;;;17.25
30001;BMP280;16845;48.670;9.000;2023-08-01T05:19:18;94274.28;;;17.31
30001;BMP280;16845;48.670;9.000;2023-08-01T05:21:46;94264.72;;;17.23
30001;BMP280;16845;48.670;9.000;2023-08-01T05:24:12;94257.75;;;17.60
30001;BMP280;16845;48.670;9.000;2023-08-01T05:26:39;94272.53;;;17.44
30001;BMP280;16845;48.670;9.000;2023-08-01T05:29:05;94295.91;;;17.47
30001;BMP280;16845;48.670;9.000;2023-08-01T05:31:32;94300.97;;;17.47
30001;BMP280;16845;48.670;9.000;2023-08-01T05:33:58;94303.50;;;17.47
30001;BMP280;16845;48.670;9.000;2023-08-01T05:36:25;94301.66;;;17.38
30001;BMP280;16845;48.670;9.000;2023-08-01T05:38:53;94290.03;;;17.36
30001;BMP280;16845;48.670;9.000;2023-08-01T05:41:19;94297.06;;;17.43
30001;BMP280;16845;48.670;9.000;2023-08-01T05:43:46;94302.59;;;17.59
30001;BMP280;16845;48.670;9.000;2023-08-01T05:46:13;94298.94;;;17.63
30001;BMP280;16845;48.670;9.000;2023-08-01T05:48:40;94290.50;;;17.63
30001;BMP280;16845;48.670;9.000;2023-08-01T05:51:06;94295.13;;;17.69
30001;BMP280;16845;48.670;9.000;2023-08-01T05:53:33;94297.75;;;17.56
30001;BMP280;16845;48.670;9.000;2023-08-01T05:56:01;94312.88;;;17.58
30001;BMP280;16845;48.670;9.000;2023-08-01T05:58:27;94303.06;;;17.64
30001;BMP280;16845;48.670;9.000;2023-08-01T06:00:55;94315.84;;;17.63
30001;BMP280;16845;48.670;9.000;2023-08-01T06:03:21;94313.22;;;17.75
30001;BMP280;16845;48.670;9.000;2023-08-01T06:05:48;94317.72;;;17.72
30001;BMP280;16845;48.670;9.000;2023-08-01T06:08:15;94313.91;;;17.77
30001;BMP280;16845;48.670;9.000;2023-08-01T06:10:41;94334.44;;;17.74
30001;BMP280;16845;48.670;9.000;2023-08-01T06:13:09;94324.41;;;17.73
30001;BMP280;16845;48.670;9.000;2023-08-01T06:15:36;94319.47;;;17.60
30001;BMP280;16845;48.670;9.000;2023-08-01T06:18:02;94314.38;;;17.60
30001;BMP280;16845;48.670;9.000;2023-08-01T06:20:29;94321.28;;;17.58
30001;BMP280;16845;48.670;9.000;2023-08-01T06:22:56;94304.00;;;17.74
30001;BMP280;16845;48.670;9.000;2023-08-01T06:25:22;94316.91;;;17.93
30001;BMP280;16845;48.670;9.000;2023-08-01T06:27:49;94332.25;;;17.81
30001;BMP280;16845;48.670;9.000;2023-08-01T06:30:20;94320.84;;;17.75
30001;BMP280;16845;48.670;9.000;2023-08-01T06:32:46;94335.81;;;17.67
30001;BMP280;16845;48.670;9.000;2023-08-01T06:35:13;94328.88;;;17.47
30001;BMP280;16845;48.670;9.000;2023-08-01T06:37:39;94334.53;;;17.51
30001;BMP280;16845;48.670;9.000;2023-08-01T06:40:07;94328.88;;;17.58
30001;BMP280;16845;48.670;9.000;2023-08-01T06:42:34;94343.91;;;17.61
30001;BMP280;16845;48.670;9.000;2023-08-01T06:45:00;94337.63;;;17.43
30001;BMP280;16845;48.670;9.000;2023-08-01T06:47:28;94345.59;;;17.50
30001;BMP280;16845;48.670;9.000;2023-08-01T06:49:54;94344.97;;;17.35
30001;BMP280;16845;48.670;9.000;2023-08-01T06:52:21;94328.13;;;17.34
30001;BMP280;16845;48.670;9.000;2023-08-01T06:54:47;94322.16;;;17.35
30001;BMP280;16845;48.670;9.000;2023-08-01T06:57:14;94324.16;;;17.65
30001;BMP280;16845;48.670;9.000;2023-08-01T06:59:40;94320.84;;;17.64
30001;BMP280;16845;48.670;9.000;2023-08-01T07:02:07;94329.13;;;17.66
30001;BMP280;16845;48.670;9.000;2023-08-01T07:04:35;94325.91;;;17.64
30001;BMP280;16845;48.670;9.000;2023-08-01T07:07:02;94326.94;;;17.73
30001;BMP280;16845;48.670;9.000;2023-08-01T07:09:29;94328.22;;;17.67
30001;BMP280;16845;48.670;9.000;2023-08-01T07:11:56;94325.34;;;17.72
30001;BMP280;16845;48.670;9.000;2023-08-01T07:14:22;94338.56;;;17.53
30001;BMP280;16845;48.670;9.000;2023-08-01T07:16:49;94337.13;;;17.27
30001;BMP280;16845;48.670;9.000;2023-08-01T07:19:15;94326.28;;;16.67
30001;BMP280;16845;48.670;9.000;2023-08-01T07:21:43;94345.69;;;16.56
30001;BMP280;16845;48.670;9.000;2023-08-01T07:24:10;94338.81;;;16.46
30001;BMP280;16845;48.670;9.000;2023-08-01T07:26:36;94347.03;;;16.49
30001;BMP280;16845;48.670;9.000;2023-08-01T07:29:03;94357.06;;;16.51
30001;BMP280;16845;48.670;9.000;2023-08-01T07:31:29;94366.97;;;16.54
30001;BMP280;16845;48.670;9.000;2023-08-01T07:33:56;94352.84;;;16.39
30001;BMP280;16845;48.670;9.000;2023-08-01T07:36:23;94359.81;;;16.48
30001;BMP280;16845;48.670;9.000;2023-08-01T07:38:51;94367.63;;;16.32
30001;BMP280;16845;48.670;9.000;2023-08-01T07:41:19;94366.94;;;16.18
30001;BMP280;16845;48.670;9.000;2023-08-01T07:43:45;94373.31;;;16.11
30001;BMP280;16845;48.670;9.000;2023-08-01T07:46:12;94372.97;;;15.92
30001;BMP280;16845;48.670;9.000;2023-08-01T07:48:38;94370.59;;;16.01
30001;BMP280;16845;48.670;9.000;2023-08-01T07:51:05;94378.09;;;16.03
30001;BMP280;16845;48.670;9.000;2023-08-01T07:53:31;94379.50;;;15.94
30001;BMP280;16845;48.670;9.000;2023-08-01T07:56:00;94374.66;;;15.91
30001;BMP280;16845;48.670;9.000;2023-08-01T07:58:26;94379.34;;;15.97
30001;BMP280;16845;48.670;9.000;2023-08-01T08:00:53;94384.78;;;15.91
30001;BMP280;16845;48.670;9.000;2023-08-01T08:03:19;94381.94;;;15.83
30001;BMP280;16845;48.670;9.000;2023-08-01T08:05:46;94376.41;;;15.91
30001;BMP280;16845;48.670;9.000;2023-08-01T08:08:12;94362.63;;;15.82
30001;BMP280;16845;48.670;9.000;2023-08-01T08:10:39;94368.91;;;15.89
30001;BMP280;16845;48.670;9.000;2023-08-01T08:13:10;94373.78;;;15.80
30001;BMP280;16845;48.670;9.000;2023-08-01T08:15:36;94359.22;;;15.71
30001;BMP280;16845;48.670;9.000;2023-08-01T08:18:03;94351.19;;;15.89
30001;BMP280;16845;48.670;9.000;2023-08-01T08:20:30;94362.94;;;16.03
30001;BMP280;16845;48.670;9.000;2023-08-01T08:22:56;94362.22;;;15.88
30001;BMP280;16845;48.670;9.000;2023-08-01T08:25:23;94358.66;;;16.03
30001;BMP280;16845;48.670;9.000;2023-08-01T08:27:49;94369.59;;;16.04
30001;BMP280;16845;48.670;9.000;2023-08-01T08:30:17;94374.34;;;16.08
30001;BMP280;16845;48.670;9.000;2023-08-01T08:32:44;94373.31;;;16.11
30001;BMP280;16845;48.670;9.000;2023-08-01T08:35:10;94367.41;;;16.23
30001;BMP280;16845;48.670;9.000;2023-08-01T08:37:37;94367.41;;;16.48
30001;BMP280;16845;48.670;9.000;2023-08-01T08:40:04;94367.94;;;16.63
30001;BMP280;16845;48.670;9.000;2023-08-01T08:42:33;94384.81;;;16.75
30001;BMP280;16845;48.670;9.000;2023-08-01T08:45:01;94385.94;;;16.48
30001;BMP280;16845;48.670;9.000;2023-08-01T08:47:31;94391.25;;;16.20
30001;BMP280;16845;48.670;9.000;2023-08-01T08:49:57;94400.03;;;16.40
30001;BMP280;16845;48.670;9.000;2023-08-01T08:52:25;94397.28;;;16.43
30001;BMP280;16845;48.670;9.000;2023-08-01T08:54:52;94398.09;;;16.43
30001;BMP280;16845;48.670;9.000;2023-08-01T08:57:18;94377.22;;;16.52
30001;BMP280;16845;48.670;9.000;2023-08-01T08:59:46;94373.59;;;16.44
30001;BMP280;16845;48.670;9.000;2023-08-01T09:02:14;94381.47;;;16.52
30001;BMP280;16845;48.670;9.000;2023-08-01T09:04:42;94370.69;;;16.84
30001;BMP280;16845;48.670;9.000;2023-08-01T09:07:10;94370.13;;;16.80
30001;BMP280;16845;48.670;9.000;2023-08-01T09:09:37;94373.50;;;16.68
30001;BMP280;16845;48.670;9.000;2023-08-01T09:12:04;94369.47;;;16.66
30001;BMP280;16845;48.670;9.000;2023-08-01T09:14:32;94379.34;;;16.81
30001;BMP280;16845;48.670;9.000;2023-08-01T09:17:06;94382.34;;;16.86
30001;BMP280;16845;48.670;9.000;2023-08-01T09:19:33;94386.28;;;16.90
30001;BMP280;16845;48.670;9.000;2023-08-01T09:22:01;94395.06;;;16.97
30001;BMP280;16845;48.670;9.000;2023-08-01T09:24:28;94384.59;;;16.78
30001;BMP280;16845;48.670;9.000;2023-08-01T09:27:02;94378.47;;;16.93
30001;BMP280;16845;48.670;9.000;2023-08-01T09:29:29;94382.66;;;17.05
30001;BMP280;16845;48.670;9.000;2023-08-01T09:31:55;94402.66;;;17.21
30001;BMP280;16845;48.670;9.000;2023-08-01T09:34:23;94393.31;;;16.87
30001;BMP280;16845;48.670;9.000;2023-08-01T09:36:51;94394.00;;;16.89
30001;BMP280;16845;48.670;9.000;2023-08-01T09:39:20;94400.50;;;17.04
30001;BMP280;16845;48.670;9.000;2023-08-01T09:41:55;94414.19;;;17.25
30001;BMP280;16845;48.670;9.000;2023-08-01T09:44:21;94409.56;;;17.42
30001;BMP280;16845;48.670;9.000;2023-08-01T09:46:55;94408.03;;;17.40
30001;BMP280;16845;48.670;9.000;2023-08-01T09:49:21;94416.25;;;17.43
30001;BMP280;16845;48.670;9.000;2023-08-01T09:51:48;94411.19;;;17.43
30001;BMP280;16845;48.670;9.000;2023-08-01T09:54:15;94411.19;;;17.89
30001;BMP280;16845;48.670;9.000;2023-08-01T09:56:44;94412.44;;;17.83
30001;BMP280;16845;48.670;9.000;2023-08-01T09:59:12;94414.91;;;17.50
30001;BMP280;16845;48.670;9.000;2023-08-01T10:01:41;94408.56;;;17.32
30001;BMP280;16845;48.670;9.000;2023-08-01T10:04:08;94407.19;;;17.28
30001;BMP280;16845;48.670;9.000;2023-08-01T10:06:37;94403.47;;;17.21
30001;BMP280;16845;48.670;9.000;2023-08-01T10:09:04;94402.31;;;17.25
30001;BMP280;16845;48.670;9.000;2023-08-01T10:11:34;94408.75;;;17.18
30001;BMP280;16845;48.670;9.000;2023-08-01T10:14:04;94403.69;;;17.53
30001;BMP280;16845;48.670;9.000;2023-08-01T10:16:31;94400.63;;;17.60
30001;BMP280;16845;48.670;9.000;2023-08-01T10:18:58;94403.91;;;17.84
30001;BMP280;16845;48.670;9.000;2023-08-01T10:21:26;94398.13;;;18.04
30001;BMP280;16845;48.670;9.000;2023-08-01T10:23:53;94402.19;;;18.18
30001;BMP280;16845;48.670;9.000;2023-08-01T10:26:20;94409.25;;;18.47
30001;BMP280;16845;48.670;9.000;2023-08-01T10:28:50;94393.16;;;19.42
30001;BMP280;16845;48.670;9.000;2023-08-01T10:31:19;94394.78;;;19.64
30001;BMP280;16845;48.670;9.000;2023-08-01T10:33:48;94398.81;;;19.46
30001;BMP280;16845;48.670;9.000;2023-08-01T10:36:16;94405.56;;;19.36
30001;BMP280;16845;48.670;9.000;2023-08-01T10:38:50;94412.34;;;19.87
30001;BMP280;16845;48.670;9.000;2023-08-01T10:41:21;94404.75;;;19.97
30001;BMP280;16845;48.670;9.000;2023-08-01T10:43:48;94405.78;;;20.75
30001;BMP280;16845;48.670;9.000;2023-08-01T10:46:14;94397.19;;;22.91
30001;BMP280;16845;48.670;9.000;2023-08-01T10:48:52;94382.16;;;24.85
30001;BMP280;16845;48.670;9.000;2023-08-01T10:51:19;94367.56;;;25.27
30001;BMP280;16845;48.670;9.000;2023-08-01T10:53:45;94361.91;;;26.82
30001;BMP280;16845;48.670;9.000;2023-08-01T10:56:16;94380.78;;;28.02
30001;BMP280;16845;48.670;9.000;2023-08-01T10:58:42;94382.63;;;26.34
30001;BMP280;16845;48.670;9.000;2023-08-01T11:01:09;94404.31;;;26.55
30001;BMP280;16845;48.670;9.000;2023-08-01T11:03:36;94392.66;;;26.75
30001;BMP280;16845;48.670;9.000;2023-08-01T11:06:04;94401.28;;;25.40
30001;BMP280;16845;48.670;9.000;2023-08-01T11:08:36;94411.00;;;23.95
30001;BMP280;16845;48.670;9.000;2023-08-01T11:11:04;94422.19;;;22.33
30001;BMP280;16845;48.670;9.000;2023-08-01T11:13:30;94423.00;;;22.34
30001;BMP280;16845;48.670;9.000;2023-08-01T11:15:57;94442.06;;;24.42
30001;BMP280;16845;48.670;9.000;2023-08-01T11:18:24;94434.00;;;25.38
30001;BMP280;16845;48.670;9.000;2023-08-01T11:20:50;94410.59;;;26.21
30001;BMP280;16845;48.670;9.000;2023-08-01T11:23:18;94418.81;;;26.94
30001;BMP280;16845;48.670;9.000;2023-08-01T11:25:44;94424.13;;;27.84
30001;BMP280;16845;48.670;9.000;2023-08-01T11:28:14;94434.66;;;27.75
30001;BMP280;16845;48.670;9.000;2023-08-01T11:30:41;94418.97;;;29.16
30001;BMP280;16845;48.670;9.000;2023-08-01T11:33:14;94425.19;;;28.64
30001;BMP280;16845;48.670;9.000;2023-08-01T11:35:41;94430.22;;;28.06
30001;BMP280;16845;48.670;9.000;2023-08-01T11:38:08;94437.31;;;25.96
30001;BMP280;16845;48.670;9.000;2023-08-01T11:40:36;94435.31;;;26.70
30001;BMP280;16845;48.670;9.000;2023-08-01T11:43:03;94434.75;;;26.12
30001;BMP280;16845;48.670;9.000;2023-08-01T11:45:30;94427.94;;;26.59
30001;BMP280;16845;48.670;9.000;2023-08-01T11:47:56;94432.53;;;26.79
30001;BMP280;16845;48.670;9.000;2023-08-01T11:50:24;94447.09;;;25.92
30001;BMP280;16845;48.670;9.000;2023-08-01T11:52:52;94423.97;;;28.23
30001;BMP280;16845;48.670;9.000;2023-08-01T11:55:23;94432.16;;;27.59
30001;BMP280;16845;48.670;9.000;2023-08-01T11:57:55;94431.44;;;26.66
30001;BMP280;16845;48.670;9.000;2023-08-01T12:00:23;94440.03;;;25.94
30001;BMP280;16845;48.670;9.000;2023-08-01T12:02:50;94444.91;;;26.84
30001;BMP280;16845;48.670;9.000;2023-08-01T12:07:50;94435.81;;;25.04
30001;BMP280;16845;48.670;9.000;2023-08-01T12:10:16;94436.31;;;26.29
30001;BMP280;16845;48.670;9.000;2023-08-01T12:12:44;94436.16;;;26.54
30001;BMP280;16845;48.670;9.000;2023-08-01T12:15:13;94428.81;;;29.27
30001;BMP280;16845;48.670;9.000;2023-08-01T12:17:39;94426.34;;;29.69
30001;BMP280;16845;48.670;9.000;2023-08-01T12:20:07;94431.63;;;31.06
30001;BMP280;16845;48.670;9.000;2023-08-01T12:22:34;94422.81;;;32.53
30001;BMP280;16845;48.670;9.000;2023-08-01T12:25:00;94413.19;;;34.24
30001;BMP280;16845;48.670;9.000;2023-08-01T12:27:27;94422.19;;;32.96
30001;BMP280;16845;48.670;9.000;2023-08-01T12:29:53;94396.03;;;32.65
30001;BMP280;16845;48.670;9.000;2023-08-01T12:32:21;94428.31;;;33.72
30001;BMP280;16845;48.670;9.000;2023-08-01T12:34:48;94426.66;;;33.40
30001;BMP280;16845;48.670;9.000;2023-08-01T12:37:14;94400.69;;;32.38
30001;BMP280;16845;48.670;9.000;2023-08-01T12:39:41;94431.25;;;31.56
30001;BMP280;16845;48.670;9.000;2023-08-01T12:42:07;94405.78;;;33.53
30001;BMP280;16845;48.670;9.000;2023-08-01T12:44:34;94419.63;;;32.51
30001;BMP280;16845;48.670;9.000;2023-08-01T12:47:00;94425.13;;;31.77
30001;BMP280;16845;48.670;9.000;2023-08-01T12:49:28;94427.59;;;32.69
30001;BMP280;16845;48.670;9.000;2023-08-01T12:51:55;94426.03;;;33.88
30001;BMP280;16845;48.670;9.000;2023-08-01T12:54:21;94425.16;;;33.63
30001;BMP280;16845;48.670;9.000;2023-08-01T12:56:48;94432.53;;;36.44
30001;BMP280;16845;48.670;9.000;2023-08-01T12:59:14;94434.19;;;36.15
30001;BMP280;16845;48.670;9.000;2023-08-01T13:01:41;94439.03;;;35.82
30001;BMP280;16845;48.670;9.000;2023-08-01T13:04:07;94449.84;;;34.96
30001;BMP280;16845;48.670;9.000;2023-08-01T13:06:35;94444.50;;;34.91
30001;BMP280;16845;48.670;9.000;2023-08-01T13:09:02;94449.84;;;34.23
30001;BMP280;16845;48.670;9.000;2023-08-01T13:11:28;94453.28;;;34.48
30001;BMP280;16845;48.670;9.000;2023-08-01T13:13:55;94457.53;;;36.40
30001;BMP280;16845;48.670;9.000;2023-08-01T13:16:21;94448.78;;;32.85
30001;BMP280;16845;48.670;9.000;2023-08-01T13:18:48;94450.75;;;34.35
30001;BMP280;16845;48.670;9.000;2023-08-01T13:21:15;94441.97;;;34.29
30001;BMP280;16845;48.670;9.000;2023-08-01T13:23:42;94447.91;;;34.43
30001;BMP280;16845;48.670;9.000;2023-08-01T13:26:09;94433.47;;;33.34
30001;BMP280;16845;48.670;9.000;2023-08-01T13:28:36;94433.00;;;31.49
30001;BMP280;16845;48.670;9.000;2023-08-01T13:31:02;94431.19;;;32.87
30001;BMP280;16845;48.670;9.000;2023-08-01T13:33:29;94438.09;;;33.26
30001;BMP280;16845;48.670;9.000;2023-08-01T13:35:55;94426.41;;;32.58
30001;BMP280;16845;48.670;9.000;2023-08-01T13:38:22;94424.81;;;32.51
30001;BMP280;16845;48.670;9.000;2023-08-01T13:40:49;94423.13;;;33.15
30001;BMP280;16845;48.670;9.000;2023-08-01T13:43:16;94425.63;;;30.44
30001;BMP280;16845;48.670;9.000;2023-08-01T13:45:42;94431.09;;;29.86
30001;BMP280;16845;48.670;9.000;2023-08-01T13:48:09;94426.25;;;28.69
30001;BMP280;16845;48.670;9.000;2023-08-01T13:50:35;94436.75;;;27.10
30001;BMP280;16845;48.670;9.000;2023-08-01T13:53:02;94443.13;;;27.53
30001;BMP280;16845;48.670;9.000;2023-08-01T13:55:28;94433.66;;;27.53
30001;BMP280;16845;48.670;9.000;2023-08-01T13:57:56;94414.91;;;28.93
30001;BMP280;16845;48.670;9.000;2023-08-01T14:00:23;94413.38;;;28.40
30001;BMP280;16845;48.670;9.000;2023-08-01T14:02:50;94427.28;;;27.41
30001;BMP280;16845;48.670;9.000;2023-08-01T14:05:16;94431.44;;;27.73
30001;BMP280;16845;48.670;9.000;2023-08-01T14:07:43;94424.25;;;29.58
30001;BMP280;16845;48.670;9.000;2023-08-01T14:10:10;94420.41;;;30.38